Time,TemperatureF,DewpointF,PressureIn,WindDirection,WindDirectionDegrees,WindSpeedMPH,WindSpeedGustMPH,Humidity,HourlyPrecipIn,Conditions,Clouds,dailyrainin,SoftwareType,DateUTC
2013-01-23 00:25:00,42.9,-10.1,30.01,NNW,348,1.0,1.0,10,0.00,,,0.00,Wunderground v.1.15,2013-01-23 07:25:00,
2013-01-23 00:30:00,43.2,-4.4,30.02,South,169,1.0,1.0,13,0.00,,,0.00,Wunderground v.1.15,2013-01-23 07:30:00,
2013-01-23 01:00:00,41.3,-7.6,30.02,WSW,253,2.0,3.0,12,0.00,,,0.00,Wunderground v.1.15,2013-01-23 08:00:00,
2013-01-23 01:15:00,39.7,-10.6,30.02,NNW,333,2.0,3.0,11,0.00,,,0.00,Wunderground v.1.15,2013-01-23 08:15:00,
2013-01-23 01:25:00,39.2,-9.3,30.03,ESE,105,1.0,1.0,12,0.00,,,0.00,Wunderground v.1.15,2013-01-23 08:25:00,
2013-01-23 01:35:00,37.5,-10.6,30.02,NNE,19,1.0,2.0,12,0.00,,,0.00,Wunderground v.1.15,2013-01-23 08:35:00,
2013-01-23 01:45:00,37.8,-10.4,30.02,NE,52,1.0,1.0,12,0.00,,,0.00,Wunderground v.1.15,2013-01-23 08:45:00,
2013-01-23 01:50:00,36.7,-9.6,30.02,SSW,210,1.0,1.0,13,0.00,,,0.00,Wunderground v.1.15,2013-01-23 08:50:00,
2013-01-23 02:00:00,36.5,-9.8,30.02,SW,214,1.0,1.0,13,0.00,,,0.00,Wunderground v.1.15,2013-01-23 09:00:00,
2013-01-23 02:15:00,35.3,-9.3,30.03,West,274,1.0,2.0,14,0.00,,,0.00,Wunderground v.1.15,2013-01-23 09:15:00,
2013-01-23 02:35:00,36.4,-8.4,30.03,NNW,345,1.0,1.0,14,0.00,,,0.00,Wunderground v.1.15,2013-01-23 09:35:00,
2013-01-23 02:45:00,37.7,-7.3,30.04,NNE,20,1.0,1.0,14,0.00,,,0.00,Wunderground v.1.15,2013-01-23 09:45:00,
2013-01-23 02:55:00,37.9,-8.7,30.04,NW,307,3.0,5.0,13,0.00,,,0.00,Wunderground v.1.15,2013-01-23 09:55:00,
2013-01-23 03:05:00,40.4,-10.1,30.03,North,358,1.0,1.0,11,0.00,,,0.00,Wunderground v.1.15,2013-01-23 10:05:00,
2013-01-23 03:15:00,40.6,-14.0,30.03,NNW,342,1.0,1.0,9,0.00,,,0.00,Wunderground v.1.15,2013-01-23 10:15:00,
2013-01-23 03:26:00,41.1,-11.5,30.03,SE,125,1.0,1.0,10,0.00,,,0.00,Wunderground v.1.15,2013-01-23 10:26:00,
2013-01-23 03:45:00,46.8,-20.8,30.04,NNW,342,2.0,4.0,5,0.00,,,0.00,Wunderground v.1.15,2013-01-23 10:45:00,
2013-01-23 04:00:00,48.4,-23.9,30.04,West,274,2.0,2.0,4,0.00,,,0.00,Wunderground v.1.15,2013-01-23 11:00:00,
2013-01-23 04:20:00,52.4,-26.6,30.04,SW,225,2.0,5.0,3,0.00,,,0.00,Wunderground v.1.15,2013-01-23 11:20:00,
2013-01-23 04:40:00,50.7,-14.4,30.04,North,359,1.0,1.0,6,0.00,,,0.00,Wunderground v.1.15,2013-01-23 11:40:00,
2013-01-23 04:50:00,47.9,-16.5,30.04,West,273,1.0,1.0,6,0.00,,,0.00,Wunderground v.1.15,2013-01-23 11:50:00,
2013-01-23 04:55:00,47.7,-20.2,30.04,WNW,297,2.0,2.0,5,0.00,,,0.00,Wunderground v.1.15,2013-01-23 11:55:00,
2013-01-23 05:10:00,46.1,-17.8,30.04,WNW,294,1.0,1.0,6,0.00,,,0.00,Wunderground v.1.15,2013-01-23 12:10:00,
2013-01-23 05:20:00,46.0,-17.9,30.04,North,9,1.0,2.0,6,0.00,,,0.00,Wunderground v.1.15,2013-01-23 12:20:00,
2013-01-23 05:30:00,46.1,-21.3,30.05,West,281,2.0,2.0,5,0.00,,,0.00,Wunderground v.1.15,2013-01-23 12:30:00,
2013-01-23 05:41:00,44.7,-13.2,30.05,NNE,15,1.0,2.0,8,0.00,,,0.00,Wunderground v.1.15,2013-01-23 12:41:00,
2013-01-23 06:00:00,46.4,-14.6,30.05,ENE,57,1.0,1.0,7,0.00,,,0.00,Wunderground v.1.15,2013-01-23 13:00:00,
2013-01-23 06:20:00,46.3,-17.7,30.04,NNE,20,1.0,1.0,6,0.00,,,0.00,Wunderground v.1.15,2013-01-23 13:20:00,
2013-01-23 06:45:00,43.4,-14.2,30.05,NNE,15,1.0,1.0,8,0.00,,,0.00,Wunderground v.1.15,2013-01-23 13:45:00,
2013-01-23 06:50:00,43.5,-14.1,30.04,WSW,242,1.0,1.0,8,0.00,,,0.00,Wunderground v.1.15,2013-01-23 13:50:00,
2013-01-23 07:15:00,41.3,-6.0,30.04,West,270,1.0,1.0,13,0.00,,,0.00,Wunderground v.1.15,2013-01-23 14:15:00,
2013-01-23 07:45:00,40.8,-8.0,30.03,North,352,1.0,1.0,12,0.00,,,0.00,Wunderground v.1.15,2013-01-23 14:45:00,
2013-01-23 07:55:00,42.2,-8.7,30.03,West,263,1.0,2.0,11,0.00,,,0.00,Wunderground v.1.15,2013-01-23 14:55:00,
2013-01-23 08:05:00,47.1,-11.4,30.03,West,281,2.0,3.0,8,0.00,,,0.00,Wunderground v.1.15,2013-01-23 15:05:00,
2013-01-23 08:10:00,50.0,-11.9,30.03,SSE,157,2.0,3.0,7,0.00,,,0.00,Wunderground v.1.15,2013-01-23 15:10:00,
2013-01-23 08:20:00,51.4,-13.9,30.03,West,269,2.0,3.0,6,0.00,,,0.00,Wunderground v.1.15,2013-01-23 15:20:00,
2013-01-23 08:35:00,54.3,-15.4,30.03,WSW,256,3.0,3.0,5,0.00,,,0.00,Wunderground v.1.15,2013-01-23 15:35:00,
2013-01-23 08:40:00,54.6,-15.2,30.04,West,264,3.0,3.0,5,0.00,,,0.00,Wunderground v.1.15,2013-01-23 15:40:00,
2013-01-23 09:00:00,55.1,-14.8,30.05,NNW,338,1.0,1.0,5,0.00,,,0.00,Wunderground v.1.15,2013-01-23 16:00:00,
2013-01-23 09:05:00,55.5,-14.6,30.04,NNE,30,2.0,5.0,5,0.00,,,0.00,Wunderground v.1.15,2013-01-23 16:05:00,
2013-01-23 09:15:00,56.0,-14.2,30.04,WSW,252,2.0,2.0,5,0.00,,,0.00,Wunderground v.1.15,2013-01-23 16:15:00,
2013-01-23 09:21:00,56.4,-13.9,30.05,NW,311,2.0,2.0,5,0.00,,,0.00,Wunderground v.1.15,2013-01-23 16:21:00,
2013-01-23 09:40:00,57.4,-13.2,30.05,WSW,239,4.0,4.0,5,0.00,,,0.00,Wunderground v.1.15,2013-01-23 16:40:00,
2013-01-23 09:45:00,57.6,-13.0,30.05,NW,305,4.0,4.0,5,0.00,,,0.00,Wunderground v.1.15,2013-01-23 16:45:00,
2013-01-23 09:55:00,57.8,-12.9,30.06,WSW,242,1.0,1.0,5,0.00,,,0.00,Wunderground v.1.15,2013-01-23 16:55:00,
2013-01-23 10:00:00,58.0,-12.8,30.06,WNW,297,2.0,3.0,5,0.00,,,0.00,Wunderground v.1.15,2013-01-23 17:00:00,
2013-01-23 10:30:00,59.0,-8.3,30.05,WSW,250,2.0,2.0,6,0.00,,,0.00,Wunderground v.1.15,2013-01-23 17:30:00,
2013-01-23 10:35:00,59.4,-8.1,30.04,SW,214,2.0,4.0,6,0.00,,,0.00,Wunderground v.1.15,2013-01-23 17:35:00,
2013-01-23 10:55:00,60.5,-7.2,30.04,West,266,3.0,6.0,6,0.00,,,0.00,Wunderground v.1.15,2013-01-23 17:55:00,
2013-01-23 11:10:00,60.6,-7.2,30.03,SW,215,5.0,10.0,6,0.00,,,0.00,Wunderground v.1.15,2013-01-23 18:10:00,
2013-01-23 11:25:00,60.7,-7.1,30.02,SSW,207,5.0,5.0,6,0.00,,,0.00,Wunderground v.1.15,2013-01-23 18:25:00,
2013-01-23 11:30:00,60.9,-7.0,30.02,WSW,256,4.0,5.0,6,0.00,,,0.00,Wunderground v.1.15,2013-01-23 18:30:00,
2013-01-23 11:40:00,60.9,-7.0,30.01,WSW,243,4.0,4.0,6,0.00,,,0.00,Wunderground v.1.15,2013-01-23 18:40:00,
2013-01-23 11:45:00,61.2,-6.7,30.01,WNW,290,4.0,4.0,6,0.00,,,0.00,Wunderground v.1.15,2013-01-23 18:45:00,
2013-01-23 12:15:00,62.0,-6.2,29.99,WSW,240,2.0,2.0,6,0.00,,,0.00,Wunderground v.1.15,2013-01-23 19:15:00,
2013-01-23 12:20:00,61.9,-6.2,29.99,West,259,2.0,3.0,6,0.00,,,0.00,Wunderground v.1.15,2013-01-23 19:20:00,
2013-01-23 12:35:00,62.0,-2.9,29.99,SW,221,2.0,2.0,7,0.00,,,0.00,Wunderground v.1.15,2013-01-23 19:35:00,
2013-01-23 12:41:00,62.2,-2.8,29.99,WSW,245,1.0,2.0,7,0.00,,,0.00,Wunderground v.1.15,2013-01-23 19:41:00,
2013-01-23 12:50:00,62.7,-5.6,29.99,West,276,3.0,4.0,6,0.00,,,0.00,Wunderground v.1.15,2013-01-23 19:50:00,
2013-01-23 13:00:00,63.0,-5.4,29.98,WSW,243,5.0,5.0,6,0.00,,,0.00,Wunderground v.1.15,2013-01-23 20:00:00,
2013-01-23 13:10:00,63.2,-9.0,29.98,SW,219,7.0,7.0,5,0.00,,,0.00,Wunderground v.1.15,2013-01-23 20:10:00,
2013-01-23 13:15:00,63.3,-5.2,29.98,SW,236,5.0,7.0,6,0.00,,,0.00,Wunderground v.1.15,2013-01-23 20:15:00,
2013-01-23 13:25:00,63.5,-8.8,29.98,West,269,5.0,6.0,5,0.00,,,0.00,Wunderground v.1.15,2013-01-23 20:25:00,
2013-01-23 13:35:00,63.4,-8.9,29.98,SW,236,6.0,10.0,5,0.00,,,0.00,Wunderground v.1.15,2013-01-23 20:35:00,
2013-01-23 13:40:00,63.4,-8.9,29.98,West,259,6.0,10.0,5,0.00,,,0.00,Wunderground v.1.15,2013-01-23 20:40:00,
2013-01-23 14:05:00,63.4,-8.9,29.98,WSW,245,7.0,7.0,5,0.00,,,0.00,Wunderground v.1.15,2013-01-23 21:05:00,
2013-01-23 14:20:00,63.4,-8.9,29.98,WSW,239,7.0,7.0,5,0.00,,,0.00,Wunderground v.1.15,2013-01-23 21:20:00,
2013-01-23 14:35:00,63.6,-8.7,29.98,WNW,287,7.0,7.0,5,0.00,,,0.00,Wunderground v.1.15,2013-01-23 21:35:00,
2013-01-23 14:45:00,63.6,-8.7,29.98,WNW,295,5.0,7.0,5,0.00,,,0.00,Wunderground v.1.15,2013-01-23 21:45:00,
2013-01-23 15:00:00,63.4,-8.9,29.98,NW,316,5.0,5.0,5,0.00,,,0.00,Wunderground v.1.15,2013-01-23 22:00:00,
2013-01-23 15:10:00,63.4,-8.9,29.98,West,276,6.0,6.0,5,0.00,,,0.00,Wunderground v.1.15,2013-01-23 22:10:00,
2013-01-23 15:15:00,63.4,-8.9,29.98,SSW,195,7.0,7.0,5,0.00,,,0.00,Wunderground v.1.15,2013-01-23 22:15:00,
2013-01-23 15:25:00,63.7,-8.7,29.98,WSW,252,4.0,5.0,5,0.00,,,0.00,Wunderground v.1.15,2013-01-23 22:25:00,
2013-01-23 15:35:00,63.9,-8.5,29.98,East,98,4.0,6.0,5,0.00,,,0.00,Wunderground v.1.15,2013-01-23 22:35:00,
2013-01-23 15:45:00,63.8,-8.6,29.98,WSW,239,2.0,2.0,5,0.00,,,0.00,Wunderground v.1.15,2013-01-23 22:45:00,
2013-01-23 16:00:00,63.0,-5.4,29.98,WNW,288,4.0,5.0,6,0.00,,,0.00,Wunderground v.1.15,2013-01-23 23:00:00,
2013-01-23 16:20:00,61.7,-6.4,29.97,WSW,255,5.0,12.0,6,0.00,,,0.00,Wunderground v.1.15,2013-01-23 23:20:00,
2013-01-23 16:30:00,61.6,-6.4,29.98,SSW,204,6.0,7.0,6,0.00,,,0.00,Wunderground v.1.15,2013-01-23 23:30:00,
2013-01-23 16:45:00,61.3,-6.7,29.98,West,269,6.0,6.0,6,0.00,,,0.00,Wunderground v.1.15,2013-01-23 23:45:00,
2013-01-23 17:00:00,61.0,-6.9,29.99,SW,232,5.0,7.0,6,0.00,,,0.00,Wunderground v.1.15,2013-01-24 00:00:00,
2013-01-23 17:15:00,60.4,-7.3,29.99,WNW,291,2.0,2.0,6,0.00,,,0.00,Wunderground v.1.15,2013-01-24 00:15:00,
2013-01-23 17:25:00,60.1,-4.3,29.98,NE,37,2.0,2.0,7,0.00,,,0.00,Wunderground v.1.15,2013-01-24 00:25:00,
2013-01-23 17:40:00,60.2,-7.5,29.98,SW,219,2.0,2.0,6,0.00,,,0.00,Wunderground v.1.15,2013-01-24 00:40:00,
2013-01-23 17:50:00,59.1,-5.1,29.98,WSW,250,2.0,3.0,7,0.00,,,0.00,Wunderground v.1.15,2013-01-24 00:50:00,
2013-01-23 18:00:00,58.8,-5.3,29.98,SW,226,2.0,2.0,7,0.00,,,0.00,Wunderground v.1.15,2013-01-24 01:00:00,
2013-01-23 18:05:00,57.1,-3.8,29.98,West,269,2.0,2.0,8,0.00,,,0.00,Wunderground v.1.15,2013-01-24 01:05:00,
2013-01-23 18:10:00,56.1,-4.6,29.98,West,269,2.0,2.0,8,0.00,,,0.00,Wunderground v.1.15,2013-01-24 01:10:00,
2013-01-23 18:15:00,56.2,-7.2,29.98,NW,315,1.0,2.0,7,0.00,,,0.00,Wunderground v.1.15,2013-01-24 01:15:00,
2013-01-23 18:26:00,56.6,-4.2,29.98,NW,325,2.0,2.0,8,0.00,,,0.00,Wunderground v.1.15,2013-01-24 01:26:00,
2013-01-23 18:45:00,55.5,-0.3,29.99,NNW,330,2.0,2.0,10,0.00,,,0.00,Wunderground v.1.15,2013-01-24 01:45:00,
2013-01-23 18:55:00,53.6,-4.0,30.00,ENE,77,2.0,3.0,9,0.00,,,0.00,Wunderground v.1.15,2013-01-24 01:55:00,
2013-01-23 19:06:00,53.2,-0.1,30.00,ENE,74,3.0,4.0,11,0.00,,,0.00,Wunderground v.1.15,2013-01-24 02:06:00,
2013-01-23 19:15:00,53.0,-0.2,30.00,NE,49,4.0,5.0,11,0.00,,,0.00,Wunderground v.1.15,2013-01-24 02:15:00,
2013-01-23 19:25:00,51.2,5.0,30.00,SE,138,3.0,3.0,15,0.00,,,0.00,Wunderground v.1.15,2013-01-24 02:25:00,
2013-01-23 19:40:00,47.9,9.8,30.00,East,97,2.0,2.0,21,0.00,,,0.00,Wunderground v.1.15,2013-01-24 02:40:00,
2013-01-23 19:50:00,46.5,9.6,30.00,NNW,340,1.0,1.0,22,0.00,,,0.00,Wunderground v.1.15,2013-01-24 02:50:00,
2013-01-23 20:21:00,45.6,8.9,29.99,North,10,1.0,1.0,22,0.00,,,0.00,Wunderground v.1.15,2013-01-24 03:21:00,
2013-01-23 20:30:00,45.0,9.4,29.99,WSW,252,1.0,1.0,23,0.00,,,0.00,Wunderground v.1.15,2013-01-24 03:30:00,
2013-01-23 20:45:00,44.9,6.2,29.98,East,86,2.0,2.0,20,0.00,,,0.00,Wunderground v.1.15,2013-01-24 03:45:00,
2013-01-23 20:50:00,45.3,6.5,29.97,WNW,287,2.0,2.0,20,0.00,,,0.00,Wunderground v.1.15,2013-01-24 03:50:00,
2013-01-23 20:55:00,45.3,7.6,29.97,North,8,1.0,3.0,21,0.00,,,0.00,Wunderground v.1.15,2013-01-24 03:55:00,
2013-01-23 21:35:00,44.7,3.7,29.97,NW,304,2.0,2.0,18,0.00,,,0.00,Wunderground v.1.15,2013-01-24 04:35:00,
2013-01-23 21:40:00,45.2,5.3,29.97,West,270,2.0,4.0,19,0.00,,,0.00,Wunderground v.1.15,2013-01-24 04:40:00,
2013-01-23 21:50:00,44.0,5.4,29.98,WSW,257,2.0,2.0,20,0.00,,,0.00,Wunderground v.1.15,2013-01-24 04:50:00,
2013-01-23 22:10:00,43.2,4.8,29.97,West,271,1.0,1.0,20,0.00,,,0.00,Wunderground v.1.15,2013-01-24 05:10:00,
2013-01-23 22:20:00,42.9,5.6,29.98,NNE,23,1.0,1.0,21,0.00,,,0.00,Wunderground v.1.15,2013-01-24 05:20:00,
2013-01-23 22:30:00,43.7,5.2,29.98,NNE,27,1.0,1.0,20,0.00,,,0.00,Wunderground v.1.15,2013-01-24 05:30:00,
2013-01-23 22:50:00,44.7,6.0,29.98,NNE,29,2.0,2.0,20,0.00,,,0.00,Wunderground v.1.15,2013-01-24 05:50:00,
2013-01-23 22:55:00,44.4,5.8,29.97,ENE,75,1.0,2.0,20,0.00,,,0.00,Wunderground v.1.15,2013-01-24 05:55:00,
2013-01-23 23:15:00,42.9,6.6,29.97,NNW,343,1.0,1.0,22,0.00,,,0.00,Wunderground v.1.15,2013-01-24 06:15:00,
2013-01-23 23:30:00,42.0,6.8,29.98,WSW,245,1.0,3.0,23,0.00,,,0.00,Wunderground v.1.15,2013-01-24 06:30:00,
2013-01-23 23:40:00,41.6,7.4,29.98,SSW,208,1.0,1.0,24,0.00,,,0.00,Wunderground v.1.15,2013-01-24 06:40:00,
2013-01-23 23:45:00,41.0,6.9,29.98,ENE,57,1.0,2.0,24,0.00,,,0.00,Wunderground v.1.15,2013-01-24 06:45:00,